createdAt,value
2024-01-15T00:01:20.542Z,-0.38
2024-01-15T00:03:48.100Z,-0.29
2024-01-15T00:06:15.212Z,-0.13
2024-01-15T00:08:41.692Z,-0.24
2024-01-15T00:11:08.162Z,-0.17
2024-01-15T00:13:34.741Z,-0.07
2024-01-15T00:16:01.283Z,-0.25
2024-01-15T00:18:28.034Z,0.01
2024-01-15T00:20:54.597Z,0.19
2024-01-15T00:23:21.114Z,0.04
2024-01-15T00:25:47.570Z,0.11
2024-01-15T00:28:14.019Z,0.14
2024-01-15T00:30:40.709Z,-0.09
2024-01-15T00:33:07.435Z,-0.42
2024-01-15T00:35:41.304Z,-0.25
2024-01-15T00:38:08.661Z,-0.19
2024-01-15T00:40:35.130Z,-0.21
2024-01-15T00:43:01.643Z,0.06
2024-01-15T00:45:28.079Z,0.08
2024-01-15T00:47:57.663Z,0.01
2024-01-15T00:50:24.215Z,-0.16
2024-01-15T00:52:50.682Z,-0.15
2024-01-15T00:55:17.130Z,-0.58
2024-01-15T00:57:43.651Z,-0.26
2024-01-15T01:00:22.397Z,0.02
2024-01-15T01:02:48.911Z,-0.25
2024-01-15T01:05:15.431Z,-0.01
2024-01-15T01:07:41.923Z,-0.30
2024-01-15T01:10:08.810Z,-0.13
2024-01-15T01:12:36.293Z,-0.06
2024-01-15T01:15:03.104Z,-0.19
2024-01-15T01:17:29.794Z,-0.44
2024-01-15T01:19:56.423Z,-0.45
2024-01-15T01:22:23.002Z,-0.43
2024-01-15T01:24:53.538Z,-0.37
2024-01-15T01:27:20.004Z,-0.43
2024-01-15T01:29:52.923Z,-0.35
2024-01-15T01:32:19.572Z,-0.54
2024-01-15T01:34:46.276Z,-0.35
2024-01-15T01:37:14.568Z,-0.59
2024-01-15T01:39:42.238Z,-0.70
2024-01-15T01:42:09.211Z,-0.41
2024-01-15T01:44:35.838Z,-0.67
2024-01-15T01:47:02.598Z,-0.72
2024-01-15T01:49:29.664Z,-0.86
2024-01-15T01:52:01.245Z,-0.66
2024-01-15T01:54:30.989Z,-0.97
2024-01-15T01:56:58.785Z,-0.82
2024-01-15T01:59:28.628Z,-1.08
2024-01-15T02:01:59.574Z,-1.05
2024-01-15T02:04:29.156Z,-0.99
2024-01-15T02:06:55.714Z,-1.06
2024-01-15T02:09:22.400Z,-1.19
2024-01-15T02:11:49.109Z,-1.01
2024-01-15T02:14:28.154Z,-1.15
2024-01-15T02:16:55.656Z,-1.45
2024-01-15T02:19:22.250Z,-1.03
2024-01-15T02:21:48.898Z,-1.24
2024-01-15T02:24:15.526Z,-1.21
2024-01-15T02:26:42.121Z,-1.23
2024-01-15T02:29:11.893Z,-1.26
2024-01-15T02:31:38.809Z,-1.26
2024-01-15T02:34:05.660Z,-1.38
2024-01-15T02:36:32.324Z,-1.21
2024-01-15T02:38:58.878Z,-0.98
2024-01-15T02:41:25.316Z,-1.00
2024-01-15T02:43:51.891Z,-1.21
2024-01-15T02:46:18.402Z,-1.13
2024-01-15T02:48:45.678Z,-1.28
2024-01-15T02:51:12.458Z,-1.29
2024-01-15T02:53:40.400Z,-1.51
2024-01-15T02:56:09.179Z,-2.02
2024-01-15T02:58:35.620Z,-1.97
2024-01-15T03:01:02.459Z,-2.18
2024-01-15T03:03:29.150Z,-1.97
2024-01-15T03:05:55.928Z,-2.00
2024-01-15T03:08:23.924Z,-2.07
2024-01-15T03:10:50.571Z,-1.85
2024-01-15T03:13:17.108Z,-1.89
2024-01-15T03:15:49.793Z,-1.61
2024-01-15T03:18:16.423Z,-1.94
2024-01-15T03:20:43.004Z,-1.91
2024-01-15T03:23:09.501Z,-1.95
2024-01-15T03:25:35.991Z,-1.95
2024-01-15T03:28:02.455Z,-2.25
2024-01-15T03:30:28.955Z,-2.35
2024-01-15T03:32:55.464Z,-2.33
2024-01-15T03:35:21.968Z,-2.13
2024-01-15T03:37:48.423Z,-2.36
2024-01-15T03:40:16.036Z,-2.51
2024-01-15T03:42:43.715Z,-2.71
2024-01-15T03:45:10.590Z,-2.80
2024-01-15T03:47:38.478Z,-2.83
2024-01-15T03:50:05.368Z,-2.75
2024-01-15T03:52:41.151Z,-2.73
2024-01-15T03:55:08.017Z,-2.71
2024-01-15T03:57:34.822Z,-2.79
2024-01-15T04:00:01.345Z,-2.73
2024-01-15T04:02:28.015Z,-2.95
2024-01-15T04:04:54.607Z,-3.02
2024-01-15T04:07:21.203Z,-2.90
2024-01-15T04:09:47.791Z,-2.96
2024-01-15T04:12:25.105Z,-2.91
2024-01-15T04:14:51.577Z,-2.88
2024-01-15T04:17:18.870Z,-2.66
2024-01-15T04:19:45.750Z,-2.91
2024-01-15T04:22:19.378Z,-2.99
2024-01-15T04:24:45.866Z,-2.94
2024-01-15T04:27:12.472Z,-2.62
2024-01-15T04:29:41.616Z,-2.85
2024-01-15T04:32:08.559Z,-2.97
2024-01-15T04:34:35.173Z,-3.02
2024-01-15T04:37:01.712Z,-2.96
2024-01-15T04:39:28.272Z,-2.88
2024-01-15T04:41:54.732Z,-2.92
2024-01-15T04:44:21.256Z,-2.91
2024-01-15T04:46:47.734Z,-2.69
2024-01-15T04:49:14.391Z,-3.00
2024-01-15T04:51:41.005Z,-2.85
2024-01-15T04:54:07.620Z,-2.90
2024-01-15T04:56:34.145Z,-2.99
2024-01-15T04:59:02.631Z,-2.93
2024-01-15T05:01:33.633Z,-2.83
2024-01-15T05:04:00.852Z,-2.93
2024-01-15T05:06:27.640Z,-2.75
2024-01-15T05:08:54.319Z,-2.83
2024-01-15T05:11:20.782Z,-2.82
2024-01-15T05:13:47.209Z,-2.81
2024-01-15T05:16:13.623Z,-2.80
2024-01-15T05:18:40.208Z,-2.73
2024-01-15T05:21:06.741Z,-2.81
2024-01-15T05:23:33.200Z,-2.77
2024-01-15T05:25:59.618Z,-2.90
2024-01-15T05:28:26.066Z,-2.95
2024-01-15T05:30:53.402Z,-2.81
2024-01-15T05:33:19.943Z,-2.85
2024-01-15T05:35:46.387Z,-2.68
2024-01-15T05:38:13.750Z,-2.85
2024-01-15T05:40:40.182Z,-2.60
2024-01-15T05:43:06.604Z,-2.65
2024-01-15T05:45:33.040Z,-2.79
2024-01-15T05:47:59.730Z,-2.75
2024-01-15T05:50:26.264Z,-2.73
2024-01-15T05:52:54.002Z,-2.81
2024-01-15T05:55:21.445Z,-2.80
2024-01-15T05:57:48.048Z,-2.81
2024-01-15T06:00:16.250Z,-2.65
2024-01-15T06:02:44.646Z,-2.65
2024-01-15T06:05:11.546Z,-2.83
2024-01-15T06:07:38.003Z,-2.73
2024-01-15T06:10:05.995Z,-2.58
2024-01-15T06:12:40.296Z,-2.53
2024-01-15T06:15:06.972Z,-2.53
2024-01-15T06:17:34.173Z,-2.69
2024-01-15T06:20:00.753Z,-2.55
2024-01-15T06:22:27.218Z,-2.52
2024-01-15T06:24:53.802Z,-2.59
2024-01-15T06:27:20.344Z,-2.51
2024-01-15T06:29:51.376Z,-2.46
2024-01-15T06:32:18.044Z,-2.51
2024-01-15T06:34:44.620Z,-2.59
2024-01-15T06:37:11.098Z,-2.44
2024-01-15T06:39:37.587Z,-2.33
2024-01-15T06:42:04.314Z,-2.49
2024-01-15T06:44:31.212Z,-2.52
2024-01-15T06:47:00.792Z,-2.43
2024-01-15T06:49:27.403Z,-2.30
2024-01-15T06:51:53.971Z,-2.46
2024-01-15T06:54:21.559Z,-2.46
2024-01-15T06:56:47.999Z,-2.40
2024-01-15T06:59:16.042Z,-2.19
2024-01-15T07:01:44.086Z,-2.27
2024-01-15T07:04:11.223Z,-2.29
2024-01-15T07:06:37.767Z,-2.39
2024-01-15T07:09:04.266Z,-2.36
2024-01-15T07:11:30.701Z,-2.32
2024-01-15T07:13:57.109Z,-2.58
2024-01-15T07:16:36.169Z,-2.53
2024-01-15T07:19:04.639Z,-2.59
2024-01-15T07:21:31.265Z,-2.44
2024-01-15T07:23:57.789Z,-2.52
2024-01-15T07:26:24.238Z,-2.37
2024-01-15T07:28:50.648Z,-2.38
2024-01-15T07:31:18.391Z,-2.25
2024-01-15T07:33:44.916Z,-2.27
2024-01-15T07:36:11.414Z,-2.23
2024-01-15T07:38:38.064Z,-2.35
2024-01-15T07:41:04.896Z,-2.34
2024-01-15T07:43:31.340Z,-2.55
2024-01-15T07:45:58.576Z,-2.56
2024-01-15T07:48:25.146Z,-2.52
2024-01-15T07:50:51.655Z,-2.51
2024-01-15T07:53:18.168Z,-2.31
2024-01-15T07:55:46.868Z,-2.52
2024-01-15T07:58:16.506Z,-2.35
2024-01-15T08:00:48.901Z,-2.32
2024-01-15T08:03:16.827Z,-2.35
2024-01-15T08:05:43.368Z,-2.36
2024-01-15T08:08:09.846Z,-2.23
2024-01-15T08:10:36.252Z,-2.22
2024-01-15T08:13:02.792Z,-2.42
2024-01-15T08:15:31.496Z,-2.48
2024-01-15T08:17:58.773Z,-2.42
2024-01-15T08:20:25.466Z,-2.30
2024-01-15T08:22:51.993Z,-2.19
2024-01-15T08:25:18.449Z,-2.05
2024-01-15T08:27:46.834Z,-2.26
2024-01-15T08:30:13.925Z,-2.21
2024-01-15T08:32:43.978Z,-2.41
2024-01-15T08:35:11.070Z,-2.37
2024-01-15T08:37:38.639Z,-2.53
2024-01-15T08:40:05.658Z,-2.47
2024-01-15T08:42:32.165Z,-2.40
2024-01-15T08:44:58.608Z,-2.31
2024-01-15T08:47:25.951Z,-2.40
2024-01-15T08:49:52.408Z,-2.29
2024-01-15T08:52:18.919Z,-2.28
2024-01-15T08:54:45.827Z,-2.16
2024-01-15T08:57:12.821Z,-2.36
2024-01-15T08:59:39.914Z,-2.45
2024-01-15T09:02:06.386Z,-2.41
2024-01-15T09:04:32.869Z,-2.45
2024-01-15T09:07:01.346Z,-2.37
2024-01-15T09:09:28.569Z,-2.32
2024-01-15T09:11:55.035Z,-2.29
2024-01-15T09:14:32.983Z,-2.25
2024-01-15T09:17:04.683Z,-2.22
2024-01-15T09:19:31.247Z,-2.30
2024-01-15T09:21:57.736Z,-2.48
2024-01-15T09:24:27.843Z,-2.47
2024-01-15T09:26:55.431Z,-2.50
2024-01-15T09:29:21.904Z,-2.50
2024-01-15T09:31:48.404Z,-2.36
2024-01-15T09:34:14.963Z,-2.44
2024-01-15T09:36:43.248Z,-2.28
2024-01-15T09:39:12.072Z,-2.30
2024-01-15T09:41:39.336Z,-2.34
2024-01-15T09:44:06.519Z,-2.10
2024-01-15T09:46:33.945Z,-2.31
2024-01-15T09:49:00.946Z,-2.27
2024-01-15T09:51:27.513Z,-2.34
2024-01-15T09:53:56.169Z,-2.37
2024-01-15T09:56:22.874Z,-2.41
2024-01-15T09:58:49.858Z,-2.38
2024-01-15T10:01:18.309Z,-2.42
2024-01-15T10:03:45.391Z,-2.42
2024-01-15T10:06:18.164Z,-2.30
2024-01-15T10:08:50.761Z,-2.64
2024-01-15T10:11:17.699Z,-2.56
2024-01-15T10:13:50.475Z,-2.56
2024-01-15T10:16:17.527Z,-2.56
2024-01-15T10:18:44.080Z,-2.44
2024-01-15T10:21:10.762Z,-2.51
2024-01-15T10:23:37.358Z,-2.45
2024-01-15T10:26:04.872Z,-2.27
2024-01-15T10:28:32.754Z,-2.09
2024-01-15T10:31:00.840Z,-2.33
2024-01-15T10:33:28.018Z,-2.46
2024-01-15T10:35:56.417Z,-2.48
2024-01-15T10:38:23.925Z,-2.33
2024-01-15T10:40:57.367Z,-2.21
2024-01-15T10:43:28.290Z,-2.23
2024-01-15T10:45:56.359Z,-2.29
2024-01-15T10:48:23.417Z,-2.12
2024-01-15T10:50:49.970Z,-1.98
2024-01-15T10:53:17.962Z,-2.02
2024-01-15T10:55:44.808Z,-2.16
2024-01-15T10:58:11.333Z,-1.81
2024-01-15T11:00:39.163Z,-1.62
2024-01-15T11:03:09.080Z,-1.87
2024-01-15T11:05:39.817Z,-1.67
2024-01-15T11:08:08.184Z,-1.51
2024-01-15T11:10:43.756Z,-1.69
2024-01-15T11:13:11.710Z,-1.94
2024-01-15T11:16:00.812Z,-1.88
2024-01-15T11:18:40.402Z,-1.88
2024-01-15T11:21:08.366Z,-1.69
2024-01-15T11:23:52.593Z,-1.86
2024-01-15T11:26:45.520Z,-1.62
2024-01-15T11:29:31.225Z,-1.64
2024-01-15T11:32:11.134Z,-1.79
2024-01-15T11:35:01.957Z,-2.07
2024-01-15T11:37:49.693Z,-1.94
2024-01-15T11:40:22.327Z,-1.93
2024-01-15T11:42:50.412Z,-1.96
2024-01-15T11:45:21.380Z,-1.94
2024-01-15T11:48:12.286Z,-1.95
2024-01-15T11:51:00.261Z,-2.13
2024-01-15T11:53:45.142Z,-2.13
2024-01-15T11:56:18.377Z,-2.15
2024-01-15T11:58:45.168Z,-2.64
2024-01-15T12:01:12.311Z,-2.23
2024-01-15T12:03:38.957Z,-2.35
2024-01-15T12:06:10.275Z,-2.23
2024-01-15T12:08:41.938Z,-2.33
2024-01-15T12:11:14.407Z,-2.22
2024-01-15T12:13:40.928Z,-2.29
2024-01-15T12:16:07.605Z,-2.43
2024-01-15T12:18:34.339Z,-2.45
2024-01-15T12:21:00.827Z,-2.41
2024-01-15T12:23:28.492Z,-2.47
2024-01-15T12:25:55.236Z,-2.53
2024-01-15T12:28:23.586Z,-2.37
2024-01-15T12:30:56.743Z,-2.38
2024-01-15T12:33:23.450Z,-2.27
2024-01-15T12:35:49.978Z,-2.36
2024-01-15T12:38:16.463Z,-2.38
2024-01-15T12:40:47.341Z,-2.38
2024-01-15T12:43:13.864Z,-2.18
2024-01-15T12:45:49.729Z,-2.23
2024-01-15T12:48:18.952Z,-2.23
2024-01-15T12:50:46.786Z,-2.24
2024-01-15T12:53:13.436Z,-2.00
2024-01-15T12:55:39.872Z,-2.09
2024-01-15T12:58:06.329Z,-1.81
2024-01-15T13:00:32.779Z,-1.95
2024-01-15T13:03:15.900Z,-1.82
2024-01-15T13:05:42.664Z,-1.93
2024-01-15T13:08:10.204Z,-1.98
2024-01-15T13:10:37.188Z,-1.80
2024-01-15T13:13:03.851Z,-1.84
2024-01-15T13:15:30.355Z,-1.88
2024-01-15T13:17:57.281Z,-1.90
2024-01-15T13:20:23.784Z,-2.12
2024-01-15T13:22:52.689Z,-2.07
2024-01-15T13:25:19.242Z,-2.08
2024-01-15T13:27:45.987Z,-1.98
2024-01-15T13:30:13.864Z,-2.08
2024-01-15T13:32:42.888Z,-2.14
2024-01-15T13:35:11.193Z,-2.08
2024-01-15T13:37:39.321Z,-2.04
2024-01-15T13:40:08.380Z,-2.15
2024-01-15T13:42:34.880Z,-2.07
2024-01-15T13:45:01.333Z,-1.94
2024-01-15T13:47:27.770Z,-1.96
2024-01-15T13:49:54.717Z,-2.03
2024-01-15T13:52:25.270Z,-2.05
2024-01-15T13:54:51.745Z,-2.03
2024-01-15T13:57:19.531Z,-1.97
2024-01-15T13:59:47.025Z,-1.82
2024-01-15T14:02:17.689Z,-1.75
2024-01-15T14:04:47.401Z,-1.78
2024-01-15T14:07:13.918Z,-1.85
2024-01-15T14:09:43.165Z,-1.63
2024-01-15T14:12:09.639Z,-1.69
2024-01-15T14:14:38.118Z,-1.88
2024-01-15T14:17:06.978Z,-1.74
2024-01-15T14:19:34.143Z,-1.60
2024-01-15T14:22:00.771Z,-1.59
2024-01-15T14:24:27.662Z,-1.71
2024-01-15T14:26:54.133Z,-1.88
2024-01-15T14:29:23.438Z,-1.76
2024-01-15T14:31:50.133Z,-1.79
2024-01-15T14:34:19.395Z,-1.80
2024-01-15T14:36:47.133Z,-1.89
2024-01-15T14:39:13.588Z,-1.79
2024-01-15T14:41:40.173Z,-1.91
2024-01-15T14:44:06.704Z,-1.89
2024-01-15T14:46:33.181Z,-1.82
2024-01-15T14:48:59.859Z,-1.93
2024-01-15T14:51:26.470Z,-1.97
2024-01-15T14:53:53.986Z,-1.92
2024-01-15T14:56:21.953Z,-1.76
2024-01-15T14:58:48.554Z,-1.90
2024-01-15T15:01:15.318Z,-1.92
2024-01-15T15:03:45.620Z,-1.81
2024-01-15T15:06:13.598Z,-1.88
2024-01-15T15:08:51.379Z,-1.89
2024-01-15T15:11:17.830Z,-1.91
2024-01-15T15:13:46.061Z,-1.81
2024-01-15T15:16:17.141Z,-1.77
2024-01-15T15:18:47.566Z,-1.80
2024-01-15T15:21:19.866Z,-1.93
2024-01-15T15:23:56.624Z,-1.82
2024-01-15T15:26:32.143Z,-2.45
2024-01-15T15:28:58.615Z,-1.82
2024-01-15T15:31:26.111Z,-1.68
2024-01-15T15:33:52.754Z,-1.70
2024-01-15T15:36:20.235Z,-1.74
2024-01-15T15:38:46.861Z,-1.91
2024-01-15T15:41:14.409Z,-1.78
2024-01-15T15:43:40.870Z,-1.74
2024-01-15T15:46:07.874Z,-1.80
2024-01-15T15:48:35.253Z,-1.78
2024-01-15T15:51:03.629Z,-1.81
2024-01-15T15:53:30.073Z,-1.86
2024-01-15T15:55:59.691Z,-1.93
2024-01-15T15:58:26.244Z,-1.94
2024-01-15T16:00:52.874Z,-1.85
2024-01-15T16:03:29.648Z,-1.99
2024-01-15T16:06:00.502Z,-2.03
2024-01-15T16:08:42.258Z,-2.08
2024-01-15T16:11:08.931Z,-1.91
2024-01-15T16:13:36.405Z,-2.02
2024-01-15T16:23:09.470Z,-2.07
2024-01-15T16:23:22.957Z,-1.99
2024-01-15T16:23:38.247Z,-2.16
2024-01-15T16:24:46.159Z,-2.09
2024-01-15T16:27:19.976Z,-2.00
2024-01-15T16:29:46.480Z,-1.95
2024-01-15T16:32:15.047Z,-1.83
2024-01-15T16:34:41.550Z,-1.95
2024-01-15T16:37:09.418Z,-1.95
2024-01-15T16:39:36.012Z,-1.96
2024-01-15T16:42:02.511Z,-2.14
2024-01-15T16:44:29.111Z,-2.00
2024-01-15T16:47:02.365Z,-1.84
2024-01-15T16:49:31.866Z,-1.89
2024-01-15T16:52:08.273Z,-1.89
2024-01-15T16:54:36.264Z,-1.92
2024-01-15T16:57:02.760Z,-1.87
2024-01-15T16:59:31.246Z,-1.97
2024-01-15T17:01:58.208Z,-1.99
2024-01-15T17:04:25.308Z,-2.07
2024-01-15T17:06:51.803Z,-2.06
2024-01-15T17:09:18.292Z,-2.08
2024-01-15T17:11:44.799Z,-2.04
2024-01-15T17:14:11.295Z,-2.07
2024-01-15T17:16:37.722Z,-2.14
2024-01-15T17:19:04.744Z,-1.98
2024-01-15T17:21:31.230Z,-2.11
2024-01-15T17:23:59.179Z,-1.98
2024-01-15T17:26:26.877Z,-2.19
2024-01-15T17:28:55.553Z,-2.09
2024-01-15T17:31:22.128Z,-2.07
2024-01-15T17:33:49.837Z,-2.08
2024-01-15T17:36:16.402Z,-2.02
2024-01-15T17:38:43.919Z,-2.04
2024-01-15T17:41:10.614Z,-1.97
2024-01-15T17:43:37.853Z,-2.45
2024-01-15T17:46:05.029Z,-2.05
2024-01-15T17:48:32.835Z,-2.10
2024-01-15T17:51:00.948Z,-2.12
2024-01-15T17:53:27.605Z,-2.11
2024-01-15T17:55:54.097Z,-2.25
2024-01-15T17:58:20.815Z,-2.28
2024-01-15T18:00:47.309Z,-2.26
2024-01-15T18:03:13.870Z,-2.25
2024-01-15T18:05:40.441Z,-2.35
2024-01-15T18:08:06.923Z,-2.28
2024-01-15T18:10:33.404Z,-2.15
2024-01-15T18:13:01.086Z,-2.18
2024-01-15T18:15:29.602Z,-2.28
2024-01-15T18:17:56.279Z,-2.25
2024-01-15T18:20:22.908Z,-2.19
2024-01-15T18:22:51.613Z,-2.33
2024-01-15T18:25:18.404Z,-2.23
2024-01-15T18:27:44.868Z,-2.14
2024-01-15T18:30:14.499Z,-2.22
2024-01-15T18:32:41.163Z,-2.08
2024-01-15T18:35:07.840Z,-2.12
2024-01-15T18:37:34.629Z,-2.24
2024-01-15T18:40:01.191Z,-2.33
2024-01-15T18:42:28.323Z,-2.31
2024-01-15T18:45:02.693Z,-2.37
2024-01-15T18:47:29.149Z,-2.35
2024-01-15T18:49:57.733Z,-2.34
2024-01-15T18:52:24.164Z,-2.24
2024-01-15T18:54:50.636Z,-2.37
2024-01-15T18:57:19.153Z,-2.36
2024-01-15T18:59:46.769Z,-2.37
2024-01-15T19:02:13.303Z,-2.43
2024-01-15T19:04:39.999Z,-2.49
2024-01-15T19:07:09.377Z,-2.58
2024-01-15T19:09:36.996Z,-2.41
2024-01-15T19:12:04.047Z,-2.45
2024-01-15T19:14:30.875Z,-2.42
2024-01-15T19:16:58.067Z,-2.42
2024-01-15T19:19:25.349Z,-2.51
2024-01-15T19:21:51.984Z,-2.60
2024-01-15T19:24:18.577Z,-2.66
2024-01-15T19:26:45.230Z,-2.63
2024-01-15T19:29:11.759Z,-2.74
2024-01-15T19:31:38.249Z,-2.60
2024-01-15T19:34:05.387Z,-2.62
2024-01-15T19:36:32.743Z,-2.56
2024-01-15T19:38:59.278Z,-2.61
2024-01-15T19:41:25.764Z,-2.68
2024-01-15T19:43:53.569Z,-2.46
2024-01-15T19:46:20.124Z,-2.54
2024-01-15T19:48:46.860Z,-2.49
2024-01-15T19:51:16.414Z,-2.59
2024-01-15T19:53:43.431Z,-2.62
2024-01-15T19:56:10.293Z,-2.59
2024-01-15T19:58:46.984Z,-2.54
2024-01-15T20:01:29.794Z,-2.62
2024-01-15T20:03:56.601Z,-2.63
2024-01-15T20:06:24.550Z,-2.91
2024-01-15T20:08:53.282Z,-2.93
2024-01-15T20:11:20.075Z,-2.82
2024-01-15T20:13:47.210Z,-2.92
2024-01-15T20:16:14.469Z,-2.84
2024-01-15T20:18:46.492Z,-2.83
2024-01-15T20:21:13.026Z,-2.73
2024-01-15T20:23:50.395Z,-2.88
2024-01-15T20:26:22.023Z,-3.02
2024-01-15T20:28:48.640Z,-3.10
2024-01-15T20:31:15.327Z,-3.10
2024-01-15T20:33:42.136Z,-3.02
2024-01-15T20:36:09.326Z,-3.00
2024-01-15T20:38:37.153Z,-2.99
2024-01-15T20:41:03.985Z,-3.01
2024-01-15T20:43:30.605Z,-3.11
2024-01-15T20:45:57.236Z,-3.06
2024-01-15T20:48:25.054Z,-3.07
2024-01-15T20:50:51.986Z,-3.16
2024-01-15T20:53:18.482Z,-3.15
2024-01-15T20:55:45.009Z,-3.09
2024-01-15T20:58:11.720Z,-2.84
2024-01-15T21:00:38.688Z,-2.60
2024-01-15T21:03:05.736Z,-2.54
2024-01-15T21:05:33.476Z,-3.07
2024-01-15T21:08:00.082Z,-3.23
2024-01-15T21:10:26.536Z,-3.35
2024-01-15T21:12:52.983Z,-3.32
2024-01-15T21:15:19.651Z,-3.44
2024-01-15T21:17:49.212Z,-3.36
2024-01-15T21:20:17.109Z,-3.77
2024-01-15T21:22:43.637Z,-3.65
2024-01-15T21:25:11.082Z,-3.85
2024-01-15T21:27:41.858Z,-3.85
2024-01-15T21:30:11.907Z,-3.78
2024-01-15T21:32:38.477Z,-3.95
2024-01-15T21:35:05.297Z,-3.92
2024-01-15T21:37:32.336Z,-3.84
2024-01-15T21:39:58.849Z,-4.14
2024-01-15T21:42:25.666Z,-4.08
2024-01-15T21:44:52.112Z,-4.10
2024-01-15T21:47:18.555Z,-3.93
2024-01-15T21:49:46.917Z,-3.95
2024-01-15T21:52:13.355Z,-4.11
2024-01-15T21:54:40.794Z,-4.16
2024-01-15T21:57:08.187Z,-4.22
2024-01-15T21:59:34.742Z,-3.98
2024-01-15T22:02:05.328Z,-4.03
2024-01-15T22:04:32.002Z,-4.03
2024-01-15T22:06:58.562Z,-4.22
2024-01-15T22:09:25.063Z,-4.07
2024-01-15T22:11:51.567Z,-4.02
2024-01-15T22:14:23.326Z,-3.92
2024-01-15T22:16:50.929Z,-4.13
2024-01-15T22:19:18.551Z,-4.05
2024-01-15T22:21:45.604Z,-3.94
2024-01-15T22:24:12.170Z,-3.92
2024-01-15T22:26:39.497Z,-3.92
2024-01-15T22:29:07.261Z,-4.30
2024-01-15T22:31:35.114Z,-4.10
2024-01-15T22:34:01.676Z,-4.31
2024-01-15T22:36:28.230Z,-4.12
2024-01-15T22:38:54.730Z,-4.34
2024-01-15T22:41:21.216Z,-4.23
2024-01-15T22:43:47.721Z,-4.02
2024-01-15T22:46:14.807Z,-4.14
2024-01-15T22:48:41.404Z,-4.19
2024-01-15T22:51:08.129Z,-4.20
2024-01-15T22:53:34.625Z,-4.14
2024-01-15T22:56:04.186Z,-3.81
2024-01-15T22:58:30.637Z,-4.11
2024-01-15T23:00:59.705Z,-4.07
2024-01-15T23:03:26.366Z,-4.13
2024-01-15T23:05:52.933Z,-4.07
2024-01-15T23:08:19.453Z,-4.05
2024-01-15T23:10:46.306Z,-4.10
2024-01-15T23:13:13.007Z,-4.16
2024-01-15T23:15:39.614Z,-4.28
2024-01-15T23:18:06.931Z,-4.28
2024-01-15T23:20:33.708Z,-4.22
2024-01-15T23:23:00.143Z,-4.23
2024-01-15T23:25:26.811Z,-4.10
2024-01-15T23:27:53.454Z,-4.07
2024-01-15T23:30:20.981Z,-3.96
2024-01-15T23:32:48.912Z,-4.41
2024-01-15T23:35:15.776Z,-4.14
2024-01-15T23:37:42.228Z,-4.37
2024-01-15T23:40:09.447Z,-4.28
2024-01-15T23:42:36.191Z,-4.28
2024-01-15T23:45:02.653Z,-4.28
2024-01-15T23:47:29.301Z,-4.38
2024-01-15T23:49:55.934Z,-4.69
2024-01-15T23:52:22.348Z,-4.74
2024-01-15T23:54:48.834Z,-4.79
2024-01-15T23:57:15.529Z,-4.79
2024-01-15T23:59:42.172Z,-4.87
